Hlavní strana
METAR-TAF:

METAR-TAF

Letiště :

Recife, Pernambuco, Brazílie

zeměpisná šířka: 08-08S, zeměpisná délka: 034-55W, výška: 19 m

Aktuální stav počasí

Zpráva byla vytvořena před 49 minutami, v 22:00 UTC
Jihovýchodní vítr 9 kt
Teplota 27°C
Vlhkost vzduchu 70%
Tlak 1016 hPa
Viditelnost 10 km a více
Polojasno ve výšce 2500 ft

METAR: SBRF 152200Z 14009KT 9999 SCT025 27/21 Q1016

Čas: 19:49 (22:49 UTC)

Předpověď počasí

Zpráva byla vytvořena před 7 hodinami a 49 minutami, v 15:00 UTC
Předpověď platná od 15 v 18 UTC do 16 v 18 UTC
Jihovýchodní vítr 12 kt
Viditelnost 10 km a více
Polojasno ve výšce 2300 ft

TAF: SBRF 151500Z 1518/1618 14012KT 9999 SCT023 TN26/1605Z TX29/1615Z RMK PEU

Stav a předpovědi počasí z více než 4 000 letišť (zprávy METAR a TAF).

Červené a žluté tečky na mapě představují dostupné meteorologické stanice.

Když kurzor umístíte na tečku, zobrazí se název stanice.

Pak kliknutím zobrazíte stav a předpověď počasí.

Chcete-li změnit mapu, kliknutím na zelené tlačítko se znaménkem +mapu přiblížíte, kliknutím na zelené tlačítko se znaménkem – mapu oddálíte a kliknutím na zelené šipky přejdete na sousední mapy.


METAR-TAF: